Thalassini Niki — 9HA2364 — position and weather

sailwx.info

Track history (hours):
 
Tides and Currents Weather Stations Pressure Air Temp Water Temp Dewpoint Dewpoint Depression Visibility Wind Speed Wind Dir Waves Ship Positions

Thalassini Niki

Last reported at 2017-Oct-04 22:25 UTC. Time now 2017-Nov-24 16:54 UTC.
Position N 37°24' E 025°55'.
Warning: this ship's position is 50 days out of date.

Length 196 m; draft 12.9 m.

Type: Cargo ship. MMSI: 248435000.

Date/timePositionNaut miles runAvg speedWind from/ knotsBaromVisibWave heightAir tempDewpointWater temp
2017-Oct-04 22:25N 37°24' E 025°55'410.9
2017-Oct-04 22:00N 37°28' E 025°53'510.8
2017-Oct-04 21:30N 37°33' E 025°50'611.1
2017-Oct-04 21:00N 37°38' E 025°47'611.1
2017-Oct-04 20:30N 37°43' E 025°44'610.9
2017-Oct-04 20:00N 37°48' E 025°41'238 9.7
2017-Oct-03 19:18N 40°55' E 028°52'2 6.0
2017-Oct-03 19:00N 40°57' E 028°54'1 0.1
2017-Oct-03 12:15N 40°57' E 028°55'0 0.6
2017-Oct-03 11:49N 40°57' E 028°55'1 3.3
2017-Oct-03 11:28N 40°58' E 028°56'3 6.0
2017-Oct-03 11:00N 40°59' E 028°59'327 8.0
2017-Oct-01 18:12N 46°16' E 030°54'512.1
2017-Oct-01 17:45N 46°21' E 030°52'311.8
2017-Oct-01 17:30N 46°24' E 030°51'510.5
2017-Oct-01 17:00N 46°29' E 030°48'3 5.3
2017-Oct-01 16:30N 46°30' E 030°45'1 1.6
2017-Oct-01 16:00N 46°30' E 030°44'0 0.2
2017-Oct-01 15:22N 46°30' E 030°44'0 0.0
2017-Oct-01 14:52N 46°30' E 030°44'0 0.0
2017-Oct-01 14:28N 46°30' E 030°44'0 0.0
2017-Oct-01 13:55N 46°30' E 030°44'0 0.0
2017-Oct-01 13:25N 46°30' E 030°44'0 0.0
2017-Oct-01 12:58N 46°30' E 030°44'0 0.0
2017-Oct-01 12:25N 46°30' E 030°44'0 0.0
2017-Oct-01 11:58N 46°30' E 030°44'0 0.0
2017-Oct-01 11:19N 46°30' E 030°44'0 0.0
2017-Oct-01 10:37N 46°30' E 030°44'0 0.0
2017-Oct-01 10:16N 46°30' E 030°44'0 0.0
2017-Oct-01 09:49N 46°30' E 030°44'0 0.0
2017-Oct-01 09:22N 46°30' E 030°44'0 0.0
2017-Oct-01 08:58N 46°30' E 030°44'0 0.0
2017-Oct-01 08:13N 46°30' E 030°44'0 0.0
2017-Oct-01 07:55N 46°30' E 030°44'0 0.0
2017-Oct-01 07:25N 46°30' E 030°44'0 0.0
2017-Oct-01 06:58N 46°30' E 030°44'0 0.0
2017-Oct-01 06:28N 46°30' E 030°44'0 0.0
2017-Oct-01 05:52N 46°30' E 030°44'0 0.0
2017-Oct-01 05:28N 46°30' E 030°44'0 0.0
2017-Oct-01 04:52N 46°30' E 030°44'0 0.0
2017-Oct-01 04:28N 46°30' E 030°44'0 0.0
2017-Oct-01 03:52N 46°30' E 030°44'0 0.0
2017-Oct-01 03:28N 46°30' E 030°44'0 0.0
2017-Oct-01 02:55N 46°30' E 030°44'0 0.0
2017-Sep-30 01:57N 46°30' E 030°44'0 0.0
2017-Sep-30 01:27N 46°30' E 030°44'0 0.0
2017-Sep-30 01:00N 46°30' E 030°44'0 0.0
2017-Sep-30 00:30N 46°30' E 030°44'0 0.0
2017-Sep-30 00:00N 46°30' E 030°44'0 0.0
2017-Sep-29 23:18N 46°30' E 030°44'0 0.0
2017-Sep-29 23:00N 46°30' E 030°44'0 0.0
2017-Sep-29 22:27N 46°30' E 030°44'0 0.0
2017-Sep-29 22:00N 46°30' E 030°44'0 0.0
2017-Sep-29 21:27N 46°30' E 030°44'0 0.0
2017-Sep-29 20:54N 46°30' E 030°44'0 0.0
2017-Sep-29 20:30N 46°30' E 030°44'0 0.0
2017-Sep-29 19:57N 46°30' E 030°44'0 0.0
2017-Sep-29 19:30N 46°30' E 030°44'0 0.0
2017-Sep-29 19:00N 46°30' E 030°44'0 0.0
2017-Sep-29 18:27N 46°30' E 030°44'0 0.0
2017-Sep-29 17:54N 46°30' E 030°44'0 0.0
2017-Sep-29 17:27N 46°30' E 030°44'0 0.0
2017-Sep-29 16:57N 46°30' E 030°44'0 0.0
2017-Sep-29 16:21N 46°30' E 030°44'0 0.0
2017-Sep-29 15:57N 46°30' E 030°44'0 0.0
2017-Sep-29 15:30N 46°30' E 030°44'0 0.0
2017-Sep-29 15:00N 46°30' E 030°44'0 0.0
2017-Sep-29 14:30N 46°30' E 030°44'0 0.0
2017-Sep-29 14:00N 46°30' E 030°44'0 0.0
2017-Sep-29 13:27N 46°30' E 030°44'0 0.0
2017-Sep-29 13:00N 46°30' E 030°44'0 0.0
2017-Sep-29 12:27N 46°30' E 030°44'0 0.0
2017-Sep-29 11:57N 46°30' E 030°44'0 0.0
2017-Sep-29 11:30N 46°30' E 030°44'0 0.0
2017-Sep-29 11:00N 46°30' E 030°44'0 0.0
2017-Sep-29 10:30N 46°30' E 030°44'0 0.0
2017-Sep-29 10:00N 46°30' E 030°44'0 0.0
2017-Sep-29 09:30N 46°30' E 030°44'0 0.0
2017-Sep-29 09:00N 46°30' E 030°44'0 0.0
2017-Sep-29 08:30N 46°30' E 030°44'0 0.0
2017-Sep-29 07:57N 46°30' E 030°44'0 0.0
2017-Sep-29 07:30N 46°30' E 030°44'0 0.0
2017-Sep-29 06:57N 46°30' E 030°44'0 0.0
2017-Sep-29 06:30N 46°30' E 030°44'0 0.0
2017-Sep-29 05:57N 46°30' E 030°44'0 0.0
2017-Sep-29 05:27N 46°30' E 030°44'0 0.0
2017-Sep-29 04:57N 46°30' E 030°44'0 0.0
2017-Sep-29 04:30N 46°30' E 030°44'0 0.0
2017-Sep-29 03:57N 46°30' E 030°44'0 0.0
2017-Sep-29 03:30N 46°30' E 030°44'0 0.0
2017-Sep-29 03:00N 46°30' E 030°44'0 0.0
2017-Sep-29 02:30N 46°30' E 030°44'0 0.0
2017-Sep-29 01:45N 46°30' E 030°44'0 0.0
2017-Sep-29 01:24N 46°30' E 030°44'0 0.0
2017-Sep-29 01:00N 46°30' E 030°44'0 0.0
2017-Sep-29 00:27N 46°30' E 030°44'0 0.0
2017-Sep-28 23:57N 46°30' E 030°44'0 0.0
2017-Sep-28 23:30N 46°30' E 030°44'0 0.0
2017-Sep-28 23:00N 46°30' E 030°44'0 0.0
2017-Sep-28 22:30N 46°30' E 030°44'0 0.0
2017-Sep-28 22:00N 46°30' E 030°44'0 0.0
2017-Sep-28 21:30N 46°30' E 030°44'0 0.0
2017-Sep-28 20:48N 46°30' E 030°44'0 0.0
2017-Sep-28 20:27N 46°30' E 030°44'0 0.0
2017-Sep-28 19:57N 46°30' E 030°44'0 0.0
2017-Sep-28 19:09N 46°30' E 030°44'0 0.1
2017-Sep-28 18:57N 46°30' E 030°44'0 0.0
2017-Sep-28 18:24N 46°30' E 030°44'0 0.0
2017-Sep-28 18:00N 46°30' E 030°44'0 0.0
2017-Sep-28 17:24N 46°30' E 030°44'0 0.0
2017-Sep-28 17:00N 46°30' E 030°44'0 0.0
2017-Sep-28 16:21N 46°30' E 030°44'0 0.0
2017-Sep-28 15:51N 46°30' E 030°44'0 0.0
2017-Sep-28 15:27N 46°30' E 030°44'0 0.0
2017-Sep-28 15:00N 46°30' E 030°44'0 0.0
2017-Sep-28 14:21N 46°30' E 030°44'0 0.0
2017-Sep-28 13:54N 46°30' E 030°44'0 0.0
2017-Sep-28 13:21N 46°30' E 030°44'0 0.0
2017-Sep-28 12:51N 46°30' E 030°44'0 0.0
2017-Sep-28 12:21N 46°30' E 030°44'0 0.0
2017-Sep-28 12:00N 46°30' E 030°44'0 0.0
2017-Sep-28 11:30N 46°30' E 030°44'0 0.0
2017-Sep-28 11:00N 46°30' E 030°44'0 0.0
2017-Sep-28 10:30N 46°30' E 030°44'0 0.0
2017-Sep-28 09:45N 46°30' E 030°44'0 0.0
2017-Sep-28 09:24N 46°30' E 030°44'0 0.0
2017-Sep-28 08:42N 46°30' E 030°44'0 0.0
2017-Sep-28 08:27N 46°30' E 030°44'0 0.0
2017-Sep-28 08:00N 46°30' E 030°44'0 0.0
2017-Sep-28 07:30N 46°30' E 030°44'0 0.0
2017-Sep-28 06:48N 46°30' E 030°44'0 0.0
2017-Sep-28 06:30N 46°30' E 030°44'0 0.0
2017-Sep-28 05:51N 46°30' E 030°44'0 0.0
2017-Sep-28 05:30N 46°30' E 030°44'0 0.0
2017-Sep-28 04:45N 46°30' E 030°44'0 0.0
2017-Sep-28 04:21N 46°30' E 030°44'0 0.0
2017-Sep-28 04:00N 46°30' E 030°44'0 0.0
2017-Sep-28 03:30N 46°30' E 030°44'0 0.0
2017-Sep-28 02:54N 46°30' E 030°44'0 0.0
2017-Sep-28 02:27N 46°30' E 030°44'0 0.0
2017-Sep-28 02:00N 46°30' E 030°44'0 0.0
2017-Sep-28 01:30N 46°30' E 030°44'0 0.0
2017-Sep-28 00:57N 46°30' E 030°44'0 0.0
2017-Sep-28 00:30N 46°30' E 030°44'0 0.0
2017-Sep-28 00:00N 46°30' E 030°44'0 0.0
2017-Sep-27 23:30N 46°30' E 030°44'0 0.0
2017-Sep-27 23:00N 46°30' E 030°44'0 0.0
2017-Sep-27 22:27N 46°30' E 030°44'0 0.0
2017-Sep-27 21:45N 46°30' E 030°44'0 0.0
2017-Sep-27 21:30N 46°30' E 030°44'0 0.0
2017-Sep-27 20:57N 46°30' E 030°44'0 0.0
2017-Sep-27 20:30N 46°30' E 030°44'0 0.0
2017-Sep-27 19:54N 46°30' E 030°44'0 0.0
2017-Sep-27 19:30N 46°30' E 030°44'0 0.0
2017-Sep-27 19:00N 46°30' E 030°44'0 0.0
2017-Sep-27 18:30N 46°30' E 030°44'0 0.0
2017-Sep-27 17:57N 46°30' E 030°44'0 0.0
2017-Sep-27 17:12N 46°30' E 030°44'0 0.0
2017-Sep-27 17:00N 46°30' E 030°44'0 0.0
2017-Sep-27 16:30N 46°30' E 030°44'0 0.0
2017-Sep-27 15:36N 46°30' E 030°44'0 0.0
2017-Sep-27 15:18N 46°30' E 030°44'0 0.0
2017-Sep-27 14:54N 46°30' E 030°44'0 0.0
2017-Sep-27 14:30N 46°30' E 030°44'0 0.0
2017-Sep-27 13:57N 46°30' E 030°44'0 0.0
2017-Sep-27 13:27N 46°30' E 030°44'0 0.0
2017-Sep-27 13:00N 46°30' E 030°44'0 0.0
2017-Sep-27 12:27N 46°30' E 030°44'0 0.0
2017-Sep-27 12:00N 46°30' E 030°44'0 0.0
2017-Sep-27 11:21N 46°30' E 030°44'0 0.0
2017-Sep-27 11:00N 46°30' E 030°44'0 0.0
2017-Sep-27 10:27N 46°30' E 030°44'0 0.0
2017-Sep-27 09:54N 46°30' E 030°44'0 0.0
2017-Sep-27 09:12N 46°30' E 030°44'0 0.0
2017-Sep-27 09:00N 46°30' E 030°44'0 0.0
2017-Sep-27 08:30N 46°30' E 030°44'0 0.0
2017-Sep-27 08:00N 46°30' E 030°44'0 0.0
2017-Sep-27 07:12N 46°30' E 030°44'0 0.0
2017-Sep-27 06:57N 46°30' E 030°44'0 0.0
2017-Sep-27 06:27N 46°30' E 030°44'0 0.0
2017-Sep-27 06:00N 46°30' E 030°44'0 0.0
2017-Sep-27 05:24N 46°30' E 030°44'0 0.0
2017-Sep-27 05:00N 46°30' E 030°44'0 0.0
2017-Sep-27 04:24N 46°30' E 030°44'0 0.0
2017-Sep-27 03:57N 46°30' E 030°44'0 0.0
2017-Sep-27 03:27N 46°30' E 030°44'0 0.0
2017-Sep-27 02:51N 46°30' E 030°44'0 0.0
2017-Sep-27 02:24N 46°30' E 030°44'0 0.0
2017-Sep-27 01:57N 46°30' E 030°44'0 0.0
2017-Sep-27 01:30N 46°30' E 030°44'0 0.0
2017-Sep-27 00:57N 46°30' E 030°44'0 0.0
2017-Sep-27 00:30N 46°30' E 030°44'0 0.0
2017-Sep-27 00:00N 46°30' E 030°44'0 0.0
2017-Sep-26 23:09N 46°30' E 030°44'0 0.0
2017-Sep-26 23:00N 46°30' E 030°44'0 0.0
2017-Sep-26 22:30N 46°30' E 030°44'0 0.0
2017-Sep-26 22:00N 46°30' E 030°44'0 0.0
2017-Sep-26 21:30N 46°30' E 030°44'0 0.0
2017-Sep-26 20:54N 46°30' E 030°44'0 0.0
2017-Sep-26 20:30N 46°30' E 030°44'0 0.0
2017-Sep-26 19:57N 46°30' E 030°44'0 0.0
2017-Sep-26 19:27N 46°30' E 030°44'0 0.0
2017-Sep-26 19:00N 46°30' E 030°44'0 0.0
2017-Sep-26 18:27N 46°30' E 030°44'0 0.0
2017-Sep-26 18:00N 46°30' E 030°44'0 0.0
2017-Sep-26 17:24N 46°30' E 030°44'0 0.0
2017-Sep-26 17:00N 46°30' E 030°44'0 0.0
2017-Sep-26 16:24N 46°30' E 030°44'0 0.0
2017-Sep-26 15:54N 46°30' E 030°44'0 0.0
2017-Sep-26 15:21N 46°30' E 030°44'0 0.0
2017-Sep-26 14:57N 46°30' E 030°44'0 0.0
2017-Sep-26 14:24N 46°30' E 030°44'0 0.0
2017-Sep-26 14:00N 46°30' E 030°44'0 0.0
2017-Sep-26 13:27N 46°30' E 030°44'0 0.0
2017-Sep-26 13:00N 46°30' E 030°44'0 0.0
2017-Sep-26 12:27N 46°30' E 030°44'0 0.0
2017-Sep-26 11:51N 46°30' E 030°44'0 0.0
2017-Sep-26 11:24N 46°30' E 030°44'0 0.0
2017-Sep-26 10:33N 46°30' E 030°44'0 0.0
2017-Sep-26 10:30N 46°30' E 030°44'0 0.0
2017-Sep-26 10:00N 46°30' E 030°44'0 0.0
2017-Sep-26 09:30N 46°30' E 030°44'0 0.0
2017-Sep-26 09:00N 46°30' E 030°44'0 0.0
2017-Sep-26 08:27N 46°30' E 030°44'0 0.0
2017-Sep-26 07:42N 46°30' E 030°44'0 0.0
2017-Sep-26 07:27N 46°30' E 030°44'0 0.0
2017-Sep-26 06:57N 46°30' E 030°44'0 0.0
2017-Sep-26 06:27N 46°30' E 030°44'0 0.0
2017-Sep-26 06:00N 46°30' E 030°44'0 0.0
2017-Sep-26 05:30N 46°30' E 030°44'0 0.0
2017-Sep-26 05:00N 46°30' E 030°44'0 0.0
2017-Sep-26 04:27N 46°30' E 030°44'0 0.0
2017-Sep-26 03:54N 46°30' E 030°44'0 0.0
2017-Sep-26 03:24N 46°30' E 030°44'0 0.0
2017-Sep-26 02:48N 46°30' E 030°44'0 0.0
2017-Sep-26 02:30N 46°30' E 030°44'0 0.0
2017-Sep-26 02:00N 46°30' E 030°44'0 0.0
2017-Sep-26 01:24N 46°30' E 030°44'0 0.0
2017-Sep-26 01:00N 46°30' E 030°44'0 0.0
2017-Sep-26 00:24N 46°30' E 030°44'0 0.0
2017-Sep-25 23:57N 46°30' E 030°44'0 0.0
2017-Sep-25 23:30N 46°30' E 030°44'0 0.0
2017-Sep-25 22:54N 46°30' E 030°44'0 0.0
2017-Sep-25 22:30N 46°30' E 030°44'0 0.0
2017-Sep-25 22:00N 46°30' E 030°44'0 0.0
2017-Sep-25 21:24N 46°30' E 030°44'0 0.0
2017-Sep-25 21:00N 46°30' E 030°44'0 0.0
2017-Sep-25 20:27N 46°30' E 030°44'0 0.0
2017-Sep-25 19:57N 46°30' E 030°44'0 0.0
2017-Sep-25 19:12N 46°30' E 030°44'0 0.0
2017-Sep-25 19:00N 46°30' E 030°44'0 0.0
2017-Sep-25 18:24N 46°30' E 030°44'0 0.0
2017-Sep-25 17:54N 46°30' E 030°44'0 0.0
2017-Sep-25 17:27N 46°30' E 030°44'0 0.0
2017-Sep-25 16:57N 46°30' E 030°44'0 0.0
2017-Sep-25 16:30N 46°30' E 030°44'0 0.0
2017-Sep-25 16:00N 46°30' E 030°44'0 0.0
2017-Sep-25 15:30N 46°30' E 030°44'0 0.0
2017-Sep-25 15:00N 46°30' E 030°44'0 0.0
2017-Sep-25 14:18N 46°30' E 030°44'0 0.0
2017-Sep-25 13:54N 46°30' E 030°44'0 0.0
2017-Sep-25 13:30N 46°30' E 030°44'0 0.0
2017-Sep-25 13:00N 46°30' E 030°44'0 0.0
2017-Sep-25 12:18N 46°30' E 030°44'0 0.0
2017-Sep-25 11:51N 46°30' E 030°44'0 0.0
2017-Sep-25 11:30N 46°30' E 030°44'0 0.0
2017-Sep-25 10:48N 46°30' E 030°44'0 0.0
2017-Sep-25 10:30N 46°30' E 030°44'0 0.0
2017-Sep-25 09:57N 46°30' E 030°44'0 0.0
2017-Sep-25 09:30N 46°30' E 030°44'0 0.0
2017-Sep-25 08:57N 46°30' E 030°44'0 0.0
2017-Sep-25 08:30N 46°30' E 030°44'0 0.0
2017-Sep-25 08:00N 46°30' E 030°44'0 0.0
2017-Sep-25 07:24N 46°30' E 030°44'0 0.0
2017-Sep-25 06:42N 46°30' E 030°44'0 0.0
2017-Sep-25 06:21N 46°30' E 030°44'0 0.0
2017-Sep-25 06:00N 46°30' E 030°44'0 0.0
2017-Sep-25 05:30N 46°30' E 030°44'0 0.0
2017-Sep-25 04:57N 46°30' E 030°44'0 0.0
2017-Sep-25 04:24N 46°30' E 030°44'0 0.0
2017-Sep-25 04:00N 46°30' E 030°44'0 0.0
2017-Sep-25 03:27N 46°30' E 030°44'0 0.0
2017-Sep-25 02:27N 46°30' E 030°44'0 0.0
2017-Sep-25 02:00N 46°30' E 030°44'0 0.0
2017-Sep-25 01:30N 46°30' E 030°44'0 0.0
2017-Sep-25 01:00N 46°30' E 030°44'0 0.0
2017-Sep-25 00:30N 46°30' E 030°44'0 0.0
2017-Sep-24 23:57N 46°30' E 030°44'0 0.0
2017-Sep-24 23:27N 46°30' E 030°44'0 0.0
2017-Sep-24 23:00N 46°30' E 030°44'0 0.0
2017-Sep-24 22:30N 46°30' E 030°44'  
Track history (hours):
 
Tides and Currents Weather Stations Pressure Air Temp Water Temp Dewpoint Dewpoint Depression Visibility Wind Speed Wind Dir Waves Ship Positions

Thalassini Niki

Last reported at 2017-Oct-04 22:25 UTC. Time now 2017-Nov-24 16:54 UTC.
Position N 37°24' E 025°55'.
Warning: this ship's position is 50 days out of date.

Length 196 m; draft 12.9 m.

Type: Cargo ship. MMSI: 248435000.

Date/timePositionNaut miles runAvg speedWind from/ knotsBaromVisibWave heightAir tempDewpointWater temp
2017-Oct-04 22:25N 37°24' E 025°55'410.9
2017-Oct-04 22:00N 37°28' E 025°53'510.8
2017-Oct-04 21:30N 37°33' E 025°50'611.1
2017-Oct-04 21:00N 37°38' E 025°47'611.1
2017-Oct-04 20:30N 37°43' E 025°44'610.9
2017-Oct-04 20:00N 37°48' E 025°41'238 9.7
2017-Oct-03 19:18N 40°55' E 028°52'2 6.0
2017-Oct-03 19:00N 40°57' E 028°54'1 0.1
2017-Oct-03 12:15N 40°57' E 028°55'0 0.6
2017-Oct-03 11:49N 40°57' E 028°55'1 3.3
2017-Oct-03 11:28N 40°58' E 028°56'3 6.0
2017-Oct-03 11:00N 40°59' E 028°59'327 8.0
2017-Oct-01 18:12N 46°16' E 030°54'512.1
2017-Oct-01 17:45N 46°21' E 030°52'311.8
2017-Oct-01 17:30N 46°24' E 030°51'510.5
2017-Oct-01 17:00N 46°29' E 030°48'3 5.3
2017-Oct-01 16:30N 46°30' E 030°45'1 1.6
2017-Oct-01 16:00N 46°30' E 030°44'0 0.2
2017-Oct-01 15:22N 46°30' E 030°44'0 0.0
2017-Oct-01 14:52N 46°30' E 030°44'0 0.0
2017-Oct-01 14:28N 46°30' E 030°44'0 0.0
2017-Oct-01 13:55N 46°30' E 030°44'0 0.0
2017-Oct-01 13:25N 46°30' E 030°44'0 0.0
2017-Oct-01 12:58N 46°30' E 030°44'0 0.0
2017-Oct-01 12:25N 46°30' E 030°44'0 0.0
2017-Oct-01 11:58N 46°30' E 030°44'0 0.0
2017-Oct-01 11:19N 46°30' E 030°44'0 0.0
2017-Oct-01 10:37N 46°30' E 030°44'0 0.0
2017-Oct-01 10:16N 46°30' E 030°44'0 0.0
2017-Oct-01 09:49N 46°30' E 030°44'0 0.0
2017-Oct-01 09:22N 46°30' E 030°44'0 0.0
2017-Oct-01 08:58N 46°30' E 030°44'0 0.0
2017-Oct-01 08:13N 46°30' E 030°44'0 0.0
2017-Oct-01 07:55N 46°30' E 030°44'0 0.0
2017-Oct-01 07:25N 46°30' E 030°44'0 0.0
2017-Oct-01 06:58N 46°30' E 030°44'0 0.0
2017-Oct-01 06:28N 46°30' E 030°44'0 0.0
2017-Oct-01 05:52N 46°30' E 030°44'0 0.0
2017-Oct-01 05:28N 46°30' E 030°44'0 0.0
2017-Oct-01 04:52N 46°30' E 030°44'0 0.0
2017-Oct-01 04:28N 46°30' E 030°44'0 0.0
2017-Oct-01 03:52N 46°30' E 030°44'0 0.0
2017-Oct-01 03:28N 46°30' E 030°44'0 0.0
2017-Oct-01 02:55N 46°30' E 030°44'0 0.0
2017-Sep-30 01:57N 46°30' E 030°44'0 0.0
2017-Sep-30 01:27N 46°30' E 030°44'0 0.0
2017-Sep-30 01:00N 46°30' E 030°44'0 0.0
2017-Sep-30 00:30N 46°30' E 030°44'0 0.0
2017-Sep-30 00:00N 46°30' E 030°44'0 0.0
2017-Sep-29 23:18N 46°30' E 030°44'0 0.0
2017-Sep-29 23:00N 46°30' E 030°44'0 0.0
2017-Sep-29 22:27N 46°30' E 030°44'0 0.0
2017-Sep-29 22:00N 46°30' E 030°44'0 0.0
2017-Sep-29 21:27N 46°30' E 030°44'0 0.0
2017-Sep-29 20:54N 46°30' E 030°44'0 0.0
2017-Sep-29 20:30N 46°30' E 030°44'0 0.0
2017-Sep-29 19:57N 46°30' E 030°44'0 0.0
2017-Sep-29 19:30N 46°30' E 030°44'0 0.0
2017-Sep-29 19:00N 46°30' E 030°44'0 0.0
2017-Sep-29 18:27N 46°30' E 030°44'0 0.0
2017-Sep-29 17:54N 46°30' E 030°44'0 0.0
2017-Sep-29 17:27N 46°30' E 030°44'0 0.0
2017-Sep-29 16:57N 46°30' E 030°44'0 0.0
2017-Sep-29 16:21N 46°30' E 030°44'0 0.0
2017-Sep-29 15:57N 46°30' E 030°44'0 0.0
2017-Sep-29 15:30N 46°30' E 030°44'0 0.0
2017-Sep-29 15:00N 46°30' E 030°44'0 0.0
2017-Sep-29 14:30N 46°30' E 030°44'0 0.0
2017-Sep-29 14:00N 46°30' E 030°44'0 0.0
2017-Sep-29 13:27N 46°30' E 030°44'0 0.0
2017-Sep-29 13:00N 46°30' E 030°44'0 0.0
2017-Sep-29 12:27N 46°30' E 030°44'0 0.0
2017-Sep-29 11:57N 46°30' E 030°44'0 0.0
2017-Sep-29 11:30N 46°30' E 030°44'0 0.0
2017-Sep-29 11:00N 46°30' E 030°44'0 0.0
2017-Sep-29 10:30N 46°30' E 030°44'0 0.0
2017-Sep-29 10:00N 46°30' E 030°44'0 0.0
2017-Sep-29 09:30N 46°30' E 030°44'0 0.0
2017-Sep-29 09:00N 46°30' E 030°44'0 0.0
2017-Sep-29 08:30N 46°30' E 030°44'0 0.0
2017-Sep-29 07:57N 46°30' E 030°44'0 0.0
2017-Sep-29 07:30N 46°30' E 030°44'0 0.0
2017-Sep-29 06:57N 46°30' E 030°44'0 0.0
2017-Sep-29 06:30N 46°30' E 030°44'0 0.0
2017-Sep-29 05:57N 46°30' E 030°44'0 0.0
2017-Sep-29 05:27N 46°30' E 030°44'0 0.0
2017-Sep-29 04:57N 46°30' E 030°44'0 0.0
2017-Sep-29 04:30N 46°30' E 030°44'0 0.0
2017-Sep-29 03:57N 46°30' E 030°44'0 0.0
2017-Sep-29 03:30N 46°30' E 030°44'0 0.0
2017-Sep-29 03:00N 46°30' E 030°44'0 0.0
2017-Sep-29 02:30N 46°30' E 030°44'0 0.0
2017-Sep-29 01:45N 46°30' E 030°44'0 0.0
2017-Sep-29 01:24N 46°30' E 030°44'0 0.0
2017-Sep-29 01:00N 46°30' E 030°44'0 0.0
2017-Sep-29 00:27N 46°30' E 030°44'0 0.0
2017-Sep-28 23:57N 46°30' E 030°44'0 0.0
2017-Sep-28 23:30N 46°30' E 030°44'0 0.0
2017-Sep-28 23:00N 46°30' E 030°44'0 0.0
2017-Sep-28 22:30N 46°30' E 030°44'0 0.0
2017-Sep-28 22:00N 46°30' E 030°44'0 0.0
2017-Sep-28 21:30N 46°30' E 030°44'0 0.0
2017-Sep-28 20:48N 46°30' E 030°44'0 0.0
2017-Sep-28 20:27N 46°30' E 030°44'0 0.0
2017-Sep-28 19:57N 46°30' E 030°44'0 0.0
2017-Sep-28 19:09N 46°30' E 030°44'0 0.1
2017-Sep-28 18:57N 46°30' E 030°44'0 0.0
2017-Sep-28 18:24N 46°30' E 030°44'0 0.0
2017-Sep-28 18:00N 46°30' E 030°44'0 0.0
2017-Sep-28 17:24N 46°30' E 030°44'0 0.0
2017-Sep-28 17:00N 46°30' E 030°44'0 0.0
2017-Sep-28 16:21N 46°30' E 030°44'0 0.0
2017-Sep-28 15:51N 46°30' E 030°44'0 0.0
2017-Sep-28 15:27N 46°30' E 030°44'0 0.0
2017-Sep-28 15:00N 46°30' E 030°44'0 0.0
2017-Sep-28 14:21N 46°30' E 030°44'0 0.0
2017-Sep-28 13:54N 46°30' E 030°44'0 0.0
2017-Sep-28 13:21N 46°30' E 030°44'0 0.0
2017-Sep-28 12:51N 46°30' E 030°44'0 0.0
2017-Sep-28 12:21N 46°30' E 030°44'0 0.0
2017-Sep-28 12:00N 46°30' E 030°44'0 0.0
2017-Sep-28 11:30N 46°30' E 030°44'0 0.0
2017-Sep-28 11:00N 46°30' E 030°44'0 0.0
2017-Sep-28 10:30N 46°30' E 030°44'0 0.0
2017-Sep-28 09:45N 46°30' E 030°44'0 0.0
2017-Sep-28 09:24N 46°30' E 030°44'0 0.0
2017-Sep-28 08:42N 46°30' E 030°44'0 0.0
2017-Sep-28 08:27N 46°30' E 030°44'0 0.0
2017-Sep-28 08:00N 46°30' E 030°44'0 0.0
2017-Sep-28 07:30N 46°30' E 030°44'0 0.0
2017-Sep-28 06:48N 46°30' E 030°44'0 0.0
2017-Sep-28 06:30N 46°30' E 030°44'0 0.0
2017-Sep-28 05:51N 46°30' E 030°44'0 0.0
2017-Sep-28 05:30N 46°30' E 030°44'0 0.0
2017-Sep-28 04:45N 46°30' E 030°44'0 0.0
2017-Sep-28 04:21N 46°30' E 030°44'0 0.0
2017-Sep-28 04:00N 46°30' E 030°44'0 0.0
2017-Sep-28 03:30N 46°30' E 030°44'0 0.0
2017-Sep-28 02:54N 46°30' E 030°44'0 0.0
2017-Sep-28 02:27N 46°30' E 030°44'0 0.0
2017-Sep-28 02:00N 46°30' E 030°44'0 0.0
2017-Sep-28 01:30N 46°30' E 030°44'0 0.0
2017-Sep-28 00:57N 46°30' E 030°44'0 0.0
2017-Sep-28 00:30N 46°30' E 030°44'0 0.0
2017-Sep-28 00:00N 46°30' E 030°44'0 0.0
2017-Sep-27 23:30N 46°30' E 030°44'0 0.0
2017-Sep-27 23:00N 46°30' E 030°44'0 0.0
2017-Sep-27 22:27N 46°30' E 030°44'0 0.0
2017-Sep-27 21:45N 46°30' E 030°44'0 0.0
2017-Sep-27 21:30N 46°30' E 030°44'0 0.0
2017-Sep-27 20:57N 46°30' E 030°44'0 0.0
2017-Sep-27 20:30N 46°30' E 030°44'0 0.0
2017-Sep-27 19:54N 46°30' E 030°44'0 0.0
2017-Sep-27 19:30N 46°30' E 030°44'0 0.0
2017-Sep-27 19:00N 46°30' E 030°44'0 0.0
2017-Sep-27 18:30N 46°30' E 030°44'0 0.0
2017-Sep-27 17:57N 46°30' E 030°44'0 0.0
2017-Sep-27 17:12N 46°30' E 030°44'0 0.0
2017-Sep-27 17:00N 46°30' E 030°44'0 0.0
2017-Sep-27 16:30N 46°30' E 030°44'0 0.0
2017-Sep-27 15:36N 46°30' E 030°44'0 0.0
2017-Sep-27 15:18N 46°30' E 030°44'0 0.0
2017-Sep-27 14:54N 46°30' E 030°44'0 0.0
2017-Sep-27 14:30N 46°30' E 030°44'0 0.0
2017-Sep-27 13:57N 46°30' E 030°44'0 0.0
2017-Sep-27 13:27N 46°30' E 030°44'0 0.0
2017-Sep-27 13:00N 46°30' E 030°44'0 0.0
2017-Sep-27 12:27N 46°30' E 030°44'0 0.0
2017-Sep-27 12:00N 46°30' E 030°44'0 0.0
2017-Sep-27 11:21N 46°30' E 030°44'0 0.0
2017-Sep-27 11:00N 46°30' E 030°44'0 0.0
2017-Sep-27 10:27N 46°30' E 030°44'0 0.0
2017-Sep-27 09:54N 46°30' E 030°44'0 0.0
2017-Sep-27 09:12N 46°30' E 030°44'0 0.0
2017-Sep-27 09:00N 46°30' E 030°44'0 0.0
2017-Sep-27 08:30N 46°30' E 030°44'0 0.0
2017-Sep-27 08:00N 46°30' E 030°44'0 0.0
2017-Sep-27 07:12N 46°30' E 030°44'0 0.0
2017-Sep-27 06:57N 46°30' E 030°44'0 0.0
2017-Sep-27 06:27N 46°30' E 030°44'0 0.0
2017-Sep-27 06:00N 46°30' E 030°44'0 0.0
2017-Sep-27 05:24N 46°30' E 030°44'0 0.0
2017-Sep-27 05:00N 46°30' E 030°44'0 0.0
2017-Sep-27 04:24N 46°30' E 030°44'0 0.0
2017-Sep-27 03:57N 46°30' E 030°44'0 0.0
2017-Sep-27 03:27N 46°30' E 030°44'0 0.0
2017-Sep-27 02:51N 46°30' E 030°44'0 0.0
2017-Sep-27 02:24N 46°30' E 030°44'0 0.0
2017-Sep-27 01:57N 46°30' E 030°44'0 0.0
2017-Sep-27 01:30N 46°30' E 030°44'0 0.0
2017-Sep-27 00:57N 46°30' E 030°44'0 0.0
2017-Sep-27 00:30N 46°30' E 030°44'0 0.0
2017-Sep-27 00:00N 46°30' E 030°44'0 0.0
2017-Sep-26 23:09N 46°30' E 030°44'0 0.0
2017-Sep-26 23:00N 46°30' E 030°44'0 0.0
2017-Sep-26 22:30N 46°30' E 030°44'0 0.0
2017-Sep-26 22:00N 46°30' E 030°44'0 0.0
2017-Sep-26 21:30N 46°30' E 030°44'0 0.0
2017-Sep-26 20:54N 46°30' E 030°44'0 0.0
2017-Sep-26 20:30N 46°30' E 030°44'0 0.0
2017-Sep-26 19:57N 46°30' E 030°44'0 0.0
2017-Sep-26 19:27N 46°30' E 030°44'0 0.0
2017-Sep-26 19:00N 46°30' E 030°44'0 0.0
2017-Sep-26 18:27N 46°30' E 030°44'0 0.0
2017-Sep-26 18:00N 46°30' E 030°44'0 0.0
2017-Sep-26 17:24N 46°30' E 030°44'0 0.0
2017-Sep-26 17:00N 46°30' E 030°44'0 0.0
2017-Sep-26 16:24N 46°30' E 030°44'0 0.0
2017-Sep-26 15:54N 46°30' E 030°44'0 0.0
2017-Sep-26 15:21N 46°30' E 030°44'0 0.0
2017-Sep-26 14:57N 46°30' E 030°44'0 0.0
2017-Sep-26 14:24N 46°30' E 030°44'0 0.0
2017-Sep-26 14:00N 46°30' E 030°44'0 0.0
2017-Sep-26 13:27N 46°30' E 030°44'0 0.0
2017-Sep-26 13:00N 46°30' E 030°44'0 0.0
2017-Sep-26 12:27N 46°30' E 030°44'0 0.0
2017-Sep-26 11:51N 46°30' E 030°44'0 0.0
2017-Sep-26 11:24N 46°30' E 030°44'0 0.0
2017-Sep-26 10:33N 46°30' E 030°44'0 0.0
2017-Sep-26 10:30N 46°30' E 030°44'0 0.0
2017-Sep-26 10:00N 46°30' E 030°44'0 0.0
2017-Sep-26 09:30N 46°30' E 030°44'0 0.0
2017-Sep-26 09:00N 46°30' E 030°44'0 0.0
2017-Sep-26 08:27N 46°30' E 030°44'0 0.0
2017-Sep-26 07:42N 46°30' E 030°44'0 0.0
2017-Sep-26 07:27N 46°30' E 030°44'0 0.0
2017-Sep-26 06:57N 46°30' E 030°44'0 0.0
2017-Sep-26 06:27N 46°30' E 030°44'0 0.0
2017-Sep-26 06:00N 46°30' E 030°44'0 0.0
2017-Sep-26 05:30N 46°30' E 030°44'0 0.0
2017-Sep-26 05:00N 46°30' E 030°44'0 0.0
2017-Sep-26 04:27N 46°30' E 030°44'0 0.0
2017-Sep-26 03:54N 46°30' E 030°44'0 0.0
2017-Sep-26 03:24N 46°30' E 030°44'0 0.0
2017-Sep-26 02:48N 46°30' E 030°44'0 0.0
2017-Sep-26 02:30N 46°30' E 030°44'0 0.0
2017-Sep-26 02:00N 46°30' E 030°44'0 0.0
2017-Sep-26 01:24N 46°30' E 030°44'0 0.0
2017-Sep-26 01:00N 46°30' E 030°44'0 0.0
2017-Sep-26 00:24N 46°30' E 030°44'0 0.0
2017-Sep-25 23:57N 46°30' E 030°44'0 0.0
2017-Sep-25 23:30N 46°30' E 030°44'0 0.0
2017-Sep-25 22:54N 46°30' E 030°44'0 0.0
2017-Sep-25 22:30N 46°30' E 030°44'0 0.0
2017-Sep-25 22:00N 46°30' E 030°44'0 0.0
2017-Sep-25 21:24N 46°30' E 030°44'0 0.0
2017-Sep-25 21:00N 46°30' E 030°44'0 0.0
2017-Sep-25 20:27N 46°30' E 030°44'0 0.0
2017-Sep-25 19:57N 46°30' E 030°44'0 0.0
2017-Sep-25 19:12N 46°30' E 030°44'0 0.0
2017-Sep-25 19:00N 46°30' E 030°44'0 0.0
2017-Sep-25 18:24N 46°30' E 030°44'0 0.0
2017-Sep-25 17:54N 46°30' E 030°44'0 0.0
2017-Sep-25 17:27N 46°30' E 030°44'0 0.0
2017-Sep-25 16:57N 46°30' E 030°44'0 0.0
2017-Sep-25 16:30N 46°30' E 030°44'0 0.0
2017-Sep-25 16:00N 46°30' E 030°44'0 0.0
2017-Sep-25 15:30N 46°30' E 030°44'0 0.0
2017-Sep-25 15:00N 46°30' E 030°44'0 0.0
2017-Sep-25 14:18N 46°30' E 030°44'0 0.0
2017-Sep-25 13:54N 46°30' E 030°44'0 0.0
2017-Sep-25 13:30N 46°30' E 030°44'0 0.0
2017-Sep-25 13:00N 46°30' E 030°44'0 0.0
2017-Sep-25 12:18N 46°30' E 030°44'0 0.0
2017-Sep-25 11:51N 46°30' E 030°44'0 0.0
2017-Sep-25 11:30N 46°30' E 030°44'0 0.0
2017-Sep-25 10:48N 46°30' E 030°44'0 0.0
2017-Sep-25 10:30N 46°30' E 030°44'0 0.0
2017-Sep-25 09:57N 46°30' E 030°44'0 0.0
2017-Sep-25 09:30N 46°30' E 030°44'0 0.0
2017-Sep-25 08:57N 46°30' E 030°44'0 0.0
2017-Sep-25 08:30N 46°30' E 030°44'0 0.0
2017-Sep-25 08:00N 46°30' E 030°44'0 0.0
2017-Sep-25 07:24N 46°30' E 030°44'0 0.0
2017-Sep-25 06:42N 46°30' E 030°44'0 0.0
2017-Sep-25 06:21N 46°30' E 030°44'0 0.0
2017-Sep-25 06:00N 46°30' E 030°44'0 0.0
2017-Sep-25 05:30N 46°30' E 030°44'0 0.0
2017-Sep-25 04:57N 46°30' E 030°44'0 0.0
2017-Sep-25 04:24N 46°30' E 030°44'0 0.0
2017-Sep-25 04:00N 46°30' E 030°44'0 0.0
2017-Sep-25 03:27N 46°30' E 030°44'0 0.0
2017-Sep-25 02:27N 46°30' E 030°44'0 0.0
2017-Sep-25 02:00N 46°30' E 030°44'0 0.0
2017-Sep-25 01:30N 46°30' E 030°44'0 0.0
2017-Sep-25 01:00N 46°30' E 030°44'0 0.0
2017-Sep-25 00:30N 46°30' E 030°44'0 0.0
2017-Sep-24 23:57N 46°30' E 030°44'0 0.0
2017-Sep-24 23:27N 46°30' E 030°44'0 0.0
2017-Sep-24 23:00N 46°30' E 030°44'0 0.0
2017-Sep-24 22:30N 46°30' E 030°44'  

Dump ship's entire track history